Time;durP1;ratioP1;P1;durP2;ratioP2;P2;SDS_P1;SDS_P2;PMS_P1;PMS_P2;Temp;Humidity;BMP_temperature;BMP_pressure;BME280_temperature;BME280_humidity;BME280_pressure;Samples;Min_cycle;Max_cycle;Signal;HPM_P1;HPM_P2
2022/03/22 00:02:23;;;;;;;23.80;11.73;;;;;;;9.60;22.96;102915.03;5071757;28;20135;-71
2022/03/22 00:04:50;;;;;;;22.38;12.43;;;;;;;9.47;23.00;102916.78;5072862;28;20083;-71
2022/03/22 00:07:17;;;;;;;25.27;12.23;;;;;;;9.34;23.10;102916.72;5090688;28;20432;-71
2022/03/22 00:09:43;;;;;;;24.98;12.52;;;;;;;9.59;22.80;102917.81;5093090;28;20484;-71
2022/03/22 00:12:10;;;;;;;28.20;13.63;;;;;;;9.59;23.13;102910.63;5086156;28;20135;-72
2022/03/22 00:14:36;;;;;;;25.30;12.23;;;;;;;9.54;22.83;102918.09;5071964;28;20068;-71
2022/03/22 00:17:23;;;;;;;27.42;12.77;;;;;;;9.41;23.01;102918.06;5071832;28;20399;-71
2022/03/22 00:19:55;;;;;;;23.05;11.77;;;;;;;9.33;23.51;102920.34;5082512;28;20369;-72
2022/03/22 00:22:21;;;;;;;26.38;12.05;;;;;;;9.31;23.34;102919.59;5092625;28;20123;-71
2022/03/22 00:24:48;;;;;;;21.95;11.77;;;;;;;9.25;23.41;102920.00;5092041;28;20044;-72
2022/03/22 00:27:14;;;;;;;26.10;12.27;;;;;;;9.26;23.36;102913.66;5092910;28;20044;-72
2022/03/22 00:29:41;;;;;;;24.05;12.57;;;;;;;9.14;23.63;102917.09;5091645;28;20097;-71
2022/03/22 00:32:08;;;;;;;24.25;12.30;;;;;;;8.32;24.25;102919.41;5073747;28;20155;-71
2022/03/22 00:34:44;;;;;;;31.95;12.65;;;;;;;8.28;24.56;102912.53;5090709;28;20036;-72
2022/03/22 00:37:14;;;;;;;25.75;12.35;;;;;;;7.96;24.89;102914.44;5092604;28;20206;-71
2022/03/22 00:39:45;;;;;;;25.23;12.63;;;;;;;7.90;24.87;102914.78;5091026;28;20165;-71
2022/03/22 00:42:12;;;;;;;27.98;12.05;;;;;;;8.49;24.45;102922.91;5091104;28;20454;-71
2022/03/22 00:44:39;;;;;;;26.35;12.27;;;;;;;8.64;24.14;102916.59;5087442;28;20471;-71
2022/03/22 00:47:09;;;;;;;24.30;12.07;;;;;;;8.91;23.87;102914.03;5083615;28;20108;-71
2022/03/22 00:49:36;;;;;;;33.72;11.65;;;;;;;8.93;23.61;102912.16;5087832;28;20119;-71
2022/03/22 00:52:04;;;;;;;22.98;12.00;;;;;;;8.94;24.03;102913.00;5081918;28;20060;-71
2022/03/22 00:54:33;;;;;;;24.23;13.07;;;;;;;9.02;23.65;102910.69;5088879;28;20127;-71
2022/03/22 00:56:59;;;;;;;24.10;12.25;;;;;;;8.98;23.98;102915.38;5075644;28;20084;-72
2022/03/22 01:02:11;;;;;;;27.40;12.73;;;;;;;8.50;24.26;102917.44;5090782;28;20040;-71
2022/03/22 01:04:38;;;;;;;30.95;12.93;;;;;;;8.40;24.20;102907.41;5091213;28;20511;-71
2022/03/22 01:07:04;;;;;;;34.00;12.80;;;;;;;8.58;24.19;102903.63;5090074;28;20140;-71
2022/03/22 01:09:31;;;;;;;21.88;11.82;;;;;;;8.40;24.52;102902.03;5090981;28;20142;-72
2022/03/22 01:11:58;;;;;;;26.48;12.32;;;;;;;8.46;24.37;102901.69;5083182;28;20087;-72
2022/03/22 01:14:28;;;;;;;26.65;13.27;;;;;;;8.43;24.32;102902.72;5076677;28;20086;-72
2022/03/22 01:16:55;;;;;;;23.25;12.25;;;;;;;8.46;24.26;102901.69;5085857;28;20040;-72
2022/03/22 01:19:27;;;;;;;27.10;12.98;;;;;;;8.64;24.54;102902.38;5055608;28;20362;-72
2022/03/22 01:21:54;;;;;;;32.47;13.00;;;;;;;8.52;24.63;102895.97;5073533;28;20064;-72
2022/03/22 01:24:21;;;;;;;26.83;12.32;;;;;;;8.76;24.12;102897.13;5091084;28;20545;-72
2022/03/22 01:26:47;;;;;;;28.17;13.02;;;;;;;8.73;24.33;102893.78;5091813;28;20433;-72
2022/03/22 01:29:15;;;;;;;32.53;13.75;;;;;;;8.53;24.27;102895.84;5091452;28;20134;-72
2022/03/22 01:31:41;;;;;;;23.75;12.57;;;;;;;8.44;24.83;102887.56;5090573;28;20430;-72
2022/03/22 01:34:08;;;;;;;27.13;12.82;;;;;;;8.42;24.57;102890.31;5091525;28;20135;-71
2022/03/22 01:36:35;;;;;;;24.02;12.85;;;;;;;8.13;25.23;102879.56;5091320;28;20044;-71
2022/03/22 01:39:01;;;;;;;27.38;12.68;;;;;;;8.08;24.96;102892.31;5074060;28;20107;-71
2022/03/22 01:41:28;;;;;;;30.85;13.32;;;;;;;8.42;24.62;102879.59;5072757;28;20050;-71
2022/03/22 01:43:55;;;;;;;29.77;13.73;;;;;;;8.12;25.24;102877.84;5091445;28;20119;-71
2022/03/22 01:46:24;;;;;;;25.35;12.48;;;;;;;8.44;24.72;102877.72;5090946;28;20067;-71
2022/03/22 01:48:53;;;;;;;30.73;13.00;;;;;;;8.21;25.27;102871.06;5075729;28;20049;-71
2022/03/22 01:51:21;;;;;;;24.75;12.27;;;;;;;8.45;25.03;102871.41;5070604;28;20131;-71
2022/03/22 01:53:49;;;;;;;30.75;13.13;;;;;;;8.32;25.06;102862.41;5070958;28;20048;-71
2022/03/22 01:56:17;;;;;;;29.23;12.77;;;;;;;8.19;25.41;102856.91;5086253;28;20051;-71
2022/03/22 01:58:43;;;;;;;28.85;13.90;;;;;;;8.30;25.25;102869.69;5082295;28;20476;-71
2022/03/22 02:10:20;;;;;;;25.92;13.05;;;;;;;8.00;25.79;102867.88;5091695;28;20055;-70
2022/03/22 02:12:49;;;;;;;27.33;12.93;;;;;;;7.97;25.64;102859.16;5090409;28;20492;-70
2022/03/22 02:15:16;;;;;;;26.90;13.30;;;;;;;7.86;25.92;102860.66;5079229;28;20044;-72
2022/03/22 02:17:46;;;;;;;23.98;13.27;;;;;;;7.83;25.94;102859.94;5070046;28;20544;-71
2022/03/22 02:20:13;;;;;;;25.52;13.90;;;;;;;7.87;25.72;102861.53;5072147;28;20048;-70
2022/03/22 02:23:04;;;;;;;27.67;14.25;;;;;;;7.81;26.02;102861.84;5074413;28;20071;-71
2022/03/22 02:25:30;;;;;;;28.67;13.38;;;;;;;7.48;26.27;102862.84;5061751;28;20175;-71
2022/03/22 02:27:57;;;;;;;24.20;13.18;;;;;;;7.25;26.56;102857.94;5074576;28;20068;-71
2022/03/22 02:30:24;;;;;;;28.25;14.40;;;;;;;7.18;26.71;102852.94;5071207;28;20048;-71
2022/03/22 02:32:56;;;;;;;30.92;13.10;;;;;;;7.16;26.63;102852.19;5087067;28;20044;-72
2022/03/22 02:35:23;;;;;;;27.45;13.05;;;;;;;7.28;26.62;102858.63;5094142;28;20067;-71
2022/03/22 02:37:50;;;;;;;24.52;13.73;;;;;;;7.53;26.23;102857.25;5093466;28;20068;-71
2022/03/22 02:40:18;;;;;;;27.15;12.85;;;;;;;7.38;26.48;102853.66;5094215;28;20075;-71
2022/03/22 02:42:53;;;;;;;23.00;12.35;;;;;;;7.41;26.36;102850.81;5094734;28;20148;-71
2022/03/22 02:45:22;;;;;;;28.23;13.85;;;;;;;7.41;26.27;102854.34;5094447;28;20145;-72
2022/03/22 02:47:50;;;;;;;30.77;14.00;;;;;;;7.43;26.48;102854.25;5086093;28;20456;-71
2022/03/22 02:50:17;;;;;;;26.30;13.13;;;;;;;7.18;26.90;102860.09;5075992;28;20113;-71
2022/03/22 02:52:47;;;;;;;25.20;11.95;;;;;;;7.37;26.57;102858.13;5074318;28;20041;-72
2022/03/22 02:55:13;;;;;;;30.90;13.43;;;;;;;7.32;26.60;102862.00;5074177;28;20139;-71
2022/03/22 02:57:40;;;;;;;29.60;14.50;;;;;;;7.18;26.89;102858.28;5074512;28;20075;-72
2022/03/22 03:00:10;;;;;;;28.42;13.95;;;;;;;7.14;26.71;102862.06;5074683;28;20070;-72
2022/03/22 03:02:44;;;;;;;25.35;13.25;;;;;;;7.34;26.63;102857.44;5074469;28;20065;-72
2022/03/22 03:05:11;;;;;;;25.67;12.60;;;;;;;7.14;26.60;102859.41;5089920;28;20399;-72
2022/03/22 03:07:38;;;;;;;27.90;13.70;;;;;;;7.24;26.86;102857.09;5093686;28;20063;-72
2022/03/22 03:10:06;;;;;;;25.45;12.85;;;;;;;6.93;27.08;102853.44;5093555;28;20060;-72
2022/03/22 03:12:33;;;;;;;25.35;13.02;;;;;;;7.10;26.88;102860.53;5086550;28;20057;-72
2022/03/22 03:15:00;;;;;;;30.27;13.32;;;;;;;6.45;27.73;102860.47;5088094;28;20488;-71
2022/03/22 03:17:27;;;;;;;27.20;14.38;;;;;;;7.04;26.84;102866.19;5074558;28;20072;-71
2022/03/22 03:19:53;;;;;;;27.65;13.60;;;;;;;6.92;27.17;102865.09;5076974;28;20076;-71
2022/03/22 03:22:20;;;;;;;26.90;12.95;;;;;;;7.08;27.05;102862.41;5075680;28;20079;-71
2022/03/22 03:24:47;;;;;;;31.50;13.88;;;;;;;7.23;26.62;102871.41;5086559;28;20115;-71
2022/03/22 03:27:13;;;;;;;29.00;13.23;;;;;;;7.21;26.96;102867.09;5093811;28;20451;-72
2022/03/22 03:29:40;;;;;;;30.48;13.38;;;;;;;7.04;26.85;102873.34;5075869;28;20044;-72
2022/03/22 03:32:07;;;;;;;24.95;12.80;;;;;;;6.74;27.49;102870.53;5072551;28;20044;-72
2022/03/22 03:34:34;;;;;;;27.38;13.52;;;;;;;7.12;27.30;102877.34;5072333;28;20123;-72
2022/03/22 03:37:00;;;;;;;25.30;13.20;;;;;;;6.90;27.27;102882.13;5073784;28;20059;-72
2022/03/22 03:39:26;;;;;;;30.60;14.30;;;;;;;7.08;26.99;102877.56;5073064;28;20044;-72
2022/03/22 03:41:53;;;;;;;29.63;12.70;;;;;;;6.87;27.38;102874.28;5073446;28;20153;-72
2022/03/22 03:47:11;;;;;;;27.75;13.52;;;;;;;6.34;28.03;102878.84;5090743;28;20207;-72
2022/03/22 03:49:43;;;;;;;27.00;13.55;;;;;;;6.72;27.85;102873.31;5094522;28;20066;-72
2022/03/22 03:52:15;;;;;;;28.92;13.25;;;;;;;6.27;28.45;102868.59;5093882;28;20062;-72
2022/03/22 03:54:42;;;;;;;26.83;13.13;;;;;;;6.03;28.73;102879.53;5091537;28;20472;-72
2022/03/22 03:57:09;;;;;;;26.48;14.65;;;;;;;6.09;28.71;102875.72;5092515;28;20074;-72
2022/03/22 03:59:37;;;;;;;28.58;12.90;;;;;;;6.37;28.12;102875.16;5092198;28;20050;-72
2022/03/22 04:02:06;;;;;;;30.17;13.93;;;;;;;6.30;28.15;102879.97;5092149;28;20058;-72
2022/03/22 04:04:35;;;;;;;30.55;13.80;;;;;;;6.01;28.34;102884.09;5093081;28;20044;-72
2022/03/22 04:07:07;;;;;;;25.65;13.43;;;;;;;5.72;29.19;102889.06;5092792;28;20488;-72
2022/03/22 04:09:35;;;;;;;33.53;14.32;;;;;;;5.82;28.95;102884.13;5091852;28;20239;-71
2022/03/22 04:12:02;;;;;;;32.22;15.20;;;;;;;6.30;28.61;102881.78;5092620;28;20136;-72
2022/03/22 04:14:28;;;;;;;31.08;13.40;;;;;;;6.13;28.67;102880.78;5092814;28;20124;-72
2022/03/22 04:16:56;;;;;;;28.13;13.60;;;;;;;6.15;28.84;102880.72;5092252;28;20098;-71
2022/03/22 04:19:23;;;;;;;28.00;13.68;;;;;;;6.35;27.81;102879.72;5092175;28;20090;-72
2022/03/22 04:21:50;;;;;;;27.25;12.70;;;;;;;6.34;28.13;102880.66;5071435;28;20050;-72
2022/03/22 04:24:16;;;;;;;25.10;13.68;;;;;;;6.24;28.43;102882.91;5071463;28;20068;-72
2022/03/22 04:26:44;;;;;;;31.23;14.25;;;;;;;6.03;28.53;102895.53;5072096;28;20119;-72
2022/03/22 04:34:44;;;;;;;29.23;13.85;;;;;;;6.21;28.56;102889.25;5071622;28;20123;-72
2022/03/22 04:37:13;;;;;;;33.60;14.18;;;;;;;6.18;28.64;102892.09;5071589;28;20048;-71
2022/03/22 04:39:42;;;;;;;26.50;13.93;;;;;;;6.10;28.63;102896.94;5062659;28;20431;-71
2022/03/22 04:42:09;;;;;;;27.55;13.23;;;;;;;6.24;28.09;102893.56;5073585;28;20143;-71
2022/03/22 04:44:35;;;;;;;32.90;13.80;;;;;;;6.14;28.57;102898.50;5079670;28;20484;-71
2022/03/22 04:47:02;;;;;;;30.73;13.45;;;;;;;6.28;28.22;102899.63;5086747;28;20039;-71
2022/03/22 04:49:29;;;;;;;31.17;14.00;;;;;;;5.89;28.97;102900.69;5089415;28;20496;-71
2022/03/22 04:57:26;;;;;;;27.77;14.05;;;;;;;5.62;29.11;102902.91;5091862;28;20044;-71
2022/03/22 04:59:54;;;;;;;27.38;14.15;;;;;;;5.56;29.38;102903.19;5072823;28;20103;-71
2022/03/22 05:02:21;;;;;;;33.03;14.10;;;;;;;5.65;29.46;102908.94;5063612;28;20131;-71
2022/03/22 05:04:48;;;;;;;34.40;14.32;;;;;;;5.51;29.03;102911.41;5071582;28;20044;-71
2022/03/22 05:07:14;;;;;;;26.98;14.63;;;;;;;5.17;29.89;102912.13;5081602;28;20044;-71
2022/03/22 05:09:41;;;;;;;32.88;14.75;;;;;;;5.35;29.52;102905.97;5093322;28;20075;-71
2022/03/22 05:12:13;;;;;;;33.47;14.95;;;;;;;5.00;29.97;102911.09;5092681;28;20063;-72
2022/03/22 05:14:42;;;;;;;32.45;14.25;;;;;;;5.26;30.08;102903.72;5091015;28;20052;-71
2022/03/22 05:17:11;;;;;;;32.90;14.02;;;;;;;5.62;29.39;102914.41;5092575;28;20093;-71
2022/03/22 05:19:39;;;;;;;37.10;13.77;;;;;;;5.59;29.36;102914.56;5092580;28;20044;-71
2022/03/22 05:22:06;;;;;;;30.90;13.80;;;;;;;5.51;29.37;102912.25;5092631;28;20056;-71
2022/03/22 05:24:33;;;;;;;32.88;14.43;;;;;;;5.48;29.46;102912.41;5079142;28;20132;-71
2022/03/22 05:27:00;;;;;;;30.17;14.60;;;;;;;5.51;29.47;102914.94;5070872;28;20072;-71
2022/03/22 05:29:27;;;;;;;37.97;14.90;;;;;;;5.73;29.17;102913.88;5070784;28;20072;-71
2022/03/22 05:31:53;;;;;;;27.40;14.43;;;;;;;5.79;29.23;102910.06;5075991;28;20078;-71
2022/03/22 05:34:20;;;;;;;34.38;14.40;;;;;;;5.85;28.79;102915.97;5090353;28;20044;-71
2022/03/22 05:36:47;;;;;;;35.85;14.82;;;;;;;5.85;29.07;102915.09;5072162;28;20064;-71
2022/03/22 05:39:13;;;;;;;28.75;14.32;;;;;;;5.67;29.14;102914.19;5076274;28;20906;-71
2022/03/22 05:41:40;;;;;;;27.48;13.73;;;;;;;5.63;29.30;102920.59;5091480;28;20457;-71
2022/03/22 05:44:06;;;;;;;34.97;15.07;;;;;;;5.91;29.07;102914.81;5090150;28;20117;-71
2022/03/22 05:46:34;;;;;;;30.55;14.35;;;;;;;5.73;29.23;102927.19;5091395;28;20126;-71
2022/03/22 05:49:00;;;;;;;31.83;13.40;;;;;;;5.90;29.10;102919.25;5075017;28;20056;-71
2022/03/22 05:51:27;;;;;;;34.58;14.70;;;;;;;5.38;29.72;102920.91;5071008;28;20131;-72
2022/03/22 05:53:53;;;;;;;34.22;15.82;;;;;;;5.33;29.55;102920.28;5070934;28;20128;-71
2022/03/22 05:56:20;;;;;;;30.48;14.30;;;;;;;5.05;30.29;102918.88;5075323;28;20544;-70
2022/03/22 05:58:46;;;;;;;33.83;15.43;;;;;;;5.47;29.48;102925.81;5075508;28;20064;-71
2022/03/22 06:01:13;;;;;;;30.58;15.57;;;;;;;5.87;29.09;102922.09;5076322;28;20041;-70
2022/03/22 06:03:40;;;;;;;32.53;14.77;;;;;;;5.88;29.19;102922.94;5065443;28;20177;-70
2022/03/22 06:06:06;;;;;;;32.10;15.55;;;;;;;5.90;29.13;102929.03;5080028;28;20055;-71
2022/03/22 06:08:34;;;;;;;31.38;15.75;;;;;;;6.02;28.98;102939.09;5085099;28;20067;-70
2022/03/22 06:11:00;;;;;;;33.47;14.90;;;;;;;5.98;29.02;102934.88;5075433;28;20048;-71
2022/03/22 06:13:27;;;;;;;35.40;14.70;;;;;;;5.90;29.01;102934.38;5091985;28;20040;-71
2022/03/22 06:15:53;;;;;;;31.95;14.68;;;;;;;5.47;29.75;102934.66;5076422;28;20098;-71
2022/03/22 06:18:20;;;;;;;27.30;14.20;;;;;;;5.17;30.18;102938.75;5095965;28;20052;-71
2022/03/22 06:20:46;;;;;;;35.88;15.52;;;;;;;5.33;29.73;102933.59;5097253;28;20040;-70
2022/03/22 06:23:14;;;;;;;31.60;15.68;;;;;;;5.46;29.55;102942.72;5082964;28;20040;-72
2022/03/22 06:25:41;;;;;;;34.15;16.02;;;;;;;5.28;29.84;102942.66;5089464;28;20113;-71
2022/03/22 06:28:14;;;;;;;27.35;14.18;;;;;;;4.73;30.15;102952.25;5095150;28;20047;-71
2022/03/22 06:30:41;;;;;;;34.20;15.98;;;;;;;5.99;28.78;102947.25;5053829;28;20076;-71
2022/03/22 06:33:13;;;;;;;40.83;16.52;;;;;;;6.55;27.95;102946.19;5042564;28;20052;-71
2022/03/22 06:35:42;;;;;;;38.03;15.35;;;;;;;5.58;28.99;102946.59;5053933;28;20053;-71
2022/03/22 06:38:10;;;;;;;26.05;14.68;;;;;;;6.24;28.34;102949.53;5077036;28;20466;-72
2022/03/22 06:40:39;;;;;;;30.27;15.52;;;;;;;5.51;29.10;102954.84;5094280;28;20413;-71
2022/03/22 06:43:09;;;;;;;35.25;16.55;;;;;;;6.14;28.62;102950.94;5092017;28;20119;-71
2022/03/22 06:45:36;;;;;;;35.92;16.25;;;;;;;7.36;26.55;102948.97;5093391;28;20123;-73
2022/03/22 06:48:07;;;;;;;40.15;15.93;;;;;;;6.43;27.32;102947.72;5092458;28;20131;-71
2022/03/22 06:50:34;;;;;;;39.78;16.83;;;;;;;7.60;26.04;102950.31;5075233;28;20483;-71
2022/03/22 06:53:02;;;;;;;36.47;14.75;;;;;;;6.97;26.43;102952.03;5093284;28;20063;-71
2022/03/22 06:55:29;;;;;;;34.45;15.95;;;;;;;8.39;24.83;102952.00;5079719;28;20078;-72
2022/03/22 06:57:56;;;;;;;34.00;15.85;;;;;;;9.24;23.77;102951.28;5071642;28;20097;-72
2022/03/22 07:00:23;;;;;;;27.63;14.27;;;;;;;8.83;23.45;102956.50;5074224;28;20484;-72
2022/03/22 07:02:50;;;;;;;28.65;15.85;;;;;;;9.54;22.91;102951.16;5075718;28;20488;-72
2022/03/22 07:05:17;;;;;;;29.60;15.77;;;;;;;8.95;23.76;102950.38;5072983;28;20047;-72
2022/03/22 07:07:44;;;;;;;29.95;16.13;;;;;;;9.36;22.74;102951.44;5073685;28;20040;-72
2022/03/22 07:10:14;;;;;;;30.25;15.63;;;;;;;11.44;20.71;102934.53;5075520;28;20052;-71
2022/03/22 07:12:52;;;;;;;34.13;15.38;;;;;;;10.78;21.33;102951.81;5075444;28;20044;-72
2022/03/22 07:15:20;;;;;;;36.80;16.60;;;;;;;11.20;20.69;102942.56;5074133;28;20048;-72
2022/03/22 07:17:47;;;;;;;29.75;15.02;;;;;;;11.33;20.51;102943.38;5075068;28;20102;-71
2022/03/22 07:20:13;;;;;;;29.17;15.48;;;;;;;11.99;19.56;102943.94;5074344;28;20102;-71
2022/03/22 07:22:41;;;;;;;30.98;16.30;;;;;;;12.04;19.65;102951.69;5073201;28;20044;-72
2022/03/22 07:25:08;;;;;;;30.95;15.65;;;;;;;11.70;19.89;102959.56;5071511;28;20044;-72
2022/03/22 07:27:35;;;;;;;28.70;15.30;;;;;;;13.22;18.63;102951.47;5069560;28;20094;-72
2022/03/22 07:30:02;;;;;;;32.75;15.80;;;;;;;12.61;18.94;102954.41;5089366;28;20452;-72
2022/03/22 07:32:28;;;;;;;27.33;15.13;;;;;;;13.09;18.70;102953.41;5093096;28;20123;-73
2022/03/22 07:34:55;;;;;;;29.58;15.45;;;;;;;13.59;18.24;102954.72;5090755;28;20112;-72
2022/03/22 07:37:21;;;;;;;28.75;15.63;;;;;;;14.13;17.46;102952.97;5093993;28;20097;-71
2022/03/22 07:39:47;;;;;;;28.60;16.02;;;;;;;14.63;17.16;102953.19;5091773;28;20071;-72
2022/03/22 07:42:14;;;;;;;24.60;14.13;;;;;;;14.74;16.77;102953.16;5092940;28;20132;-71
2022/03/22 07:44:40;;;;;;;24.33;14.75;;;;;;;14.29;17.03;102950.69;5092984;28;20067;-72
2022/03/22 07:47:07;;;;;;;27.63;15.63;;;;;;;12.90;18.21;102951.31;5091132;28;20075;-72
2022/03/22 07:55:04;;;;;;;28.48;13.98;;;;;;;15.00;16.57;102955.44;5091879;28;20531;-71
2022/03/22 07:57:31;;;;;;;26.48;14.43;;;;;;;13.55;17.28;102960.47;5091697;28;20135;-71
2022/03/22 07:59:58;;;;;;;33.50;16.92;;;;;;;13.06;18.31;102962.59;5093131;28;20056;-71
2022/03/22 08:02:25;;;;;;;28.08;16.02;;;;;;;14.49;17.35;102961.63;5091496;28;20054;-71
2022/03/22 08:04:53;;;;;;;29.48;14.02;;;;;;;13.66;17.79;102963.13;5092970;28;20044;-71
2022/03/22 08:07:19;;;;;;;26.73;15.00;;;;;;;15.00;16.60;102952.72;5087035;28;20051;-71
2022/03/22 08:09:46;;;;;;;26.77;14.27;;;;;;;14.59;16.57;102957.16;5092576;28;20123;-71
2022/03/22 08:12:12;;;;;;;28.67;13.90;;;;;;;16.02;15.71;102950.75;5092264;28;20047;-72
2022/03/22 08:14:39;;;;;;;30.98;14.30;;;;;;;15.10;16.07;102948.22;5092656;28;20131;-72
2022/03/22 08:17:05;;;;;;;26.00;13.82;;;;;;;14.46;16.55;102953.78;5092475;28;20135;-72
2022/03/22 08:19:32;;;;;;;21.33;13.48;;;;;;;13.65;16.98;102964.13;5092519;28;20083;-71
2022/03/22 08:21:58;;;;;;;28.75;12.93;;;;;;;13.96;16.98;102958.94;5092045;28;20074;-71
2022/03/22 08:24:25;;;;;;;25.38;13.70;;;;;;;14.83;16.30;102953.34;5092222;28;20479;-71
2022/03/22 08:26:51;;;;;;;28.85;13.88;;;;;;;16.23;15.58;102955.13;5091908;28;20075;-71
2022/03/22 08:29:18;;;;;;;26.85;14.13;;;;;;;16.10;15.39;102953.59;5080226;28;20123;-72
2022/03/22 08:31:45;;;;;;;22.33;12.80;;;;;;;14.90;15.91;102946.41;5071693;28;20053;-72
2022/03/22 08:34:11;;;;;;;25.20;12.55;;;;;;;15.75;15.00;102939.75;5071811;28;20054;-72
2022/03/22 08:36:38;;;;;;;25.13;13.73;;;;;;;15.33;15.35;102948.88;5071821;28;20040;-72
2022/03/22 08:39:04;;;;;;;23.70;12.73;;;;;;;15.67;15.05;102944.03;5072670;28;20140;-71
2022/03/22 08:41:31;;;;;;;23.17;12.15;;;;;;;14.14;16.17;102937.63;5071503;28;20127;-71
2022/03/22 08:43:58;;;;;;;24.38;12.77;;;;;;;14.65;16.01;102939.56;5072597;28;20056;-72
2022/03/22 08:46:25;;;;;;;24.38;13.40;;;;;;;15.29;15.66;102946.56;5073129;28;20113;-71
2022/03/22 08:48:53;;;;;;;25.52;13.55;;;;;;;15.35;15.67;102936.06;5072033;28;20404;-71
2022/03/22 08:51:24;;;;;;;28.48;13.05;;;;;;;17.62;14.20;102938.19;5072921;28;20043;-71
2022/03/22 08:53:53;;;;;;;21.38;13.43;;;;;;;17.67;13.95;102938.56;5071780;28;20048;-71
2022/03/22 08:56:22;;;;;;;25.70;12.85;;;;;;;17.68;13.68;102937.53;5071175;28;20068;-72
2022/03/22 08:58:52;;;;;;;20.35;12.20;;;;;;;15.67;15.05;102935.91;5070978;28;20044;-73
2022/03/22 09:01:24;;;;;;;20.88;12.48;;;;;;;15.19;15.48;102943.84;5053933;28;20113;-73
2022/03/22 09:06:07;;;;;;;25.20;11.68;;;;;;;15.83;15.13;102929.91;5074373;28;20396;-71
2022/03/22 09:06:38;;;;;;;26.20;11.68;;;;;;;17.92;13.77;102936.94;5075018;28;20047;-71
2022/03/22 09:09:05;;;;;;;27.25;13.00;;;;;;;17.64;13.62;102938.88;5070274;28;20072;-72
2022/03/22 09:11:34;;;;;;;21.65;12.82;;;;;;;18.04;13.38;102938.41;5071532;28;20132;-73
2022/03/22 09:14:03;;;;;;;25.08;12.32;;;;;;;19.15;12.82;102928.69;5050781;28;20055;-73
2022/03/22 09:16:32;;;;;;;21.58;11.70;;;;;;;16.82;13.62;102929.69;5051165;28;20541;-73
2022/03/22 09:18:59;;;;;;;28.33;12.32;;;;;;;15.07;14.96;102929.56;5051481;28;20049;-73
2022/03/22 09:21:26;;;;;;;24.92;11.63;;;;;;;16.82;14.05;102921.56;5053040;28;20093;-73
2022/03/22 09:23:54;;;;;;;22.90;11.93;;;;;;;15.93;14.08;102919.09;5088316;28;20411;-73
2022/03/22 09:26:21;;;;;;;25.83;11.48;;;;;;;14.37;15.59;102919.50;5077788;28;20053;-73
2022/03/22 09:28:52;;;;;;;16.48;10.60;;;;;;;15.84;14.70;102919.94;5091123;28;20044;-73
2022/03/22 09:31:20;;;;;;;26.42;11.60;;;;;;;16.98;13.63;102920.91;5085755;28;20545;-73
2022/03/22 09:33:48;;;;;;;18.83;10.55;;;;;;;18.54;12.73;102918.78;5071563;28;20103;-74
2022/03/22 09:36:16;;;;;;;21.92;11.10;;;;;;;15.79;13.69;102916.81;5077509;28;20045;-73
2022/03/22 09:38:42;;;;;;;17.77;10.43;;;;;;;15.53;14.43;102911.88;5088542;28;20048;-73
2022/03/22 09:41:13;;;;;;;23.20;11.20;;;;;;;17.43;12.79;102912.00;5077544;28;20143;-72
2022/03/22 09:43:45;;;;;;;21.48;10.75;;;;;;;17.76;12.81;102910.50;5083067;28;20040;-72
2022/03/22 09:46:13;;;;;;;22.08;10.88;;;;;;;17.58;12.88;102911.34;5076538;28;20044;-73
2022/03/22 09:48:40;;;;;;;18.45;10.82;;;;;;;18.29;12.63;102906.91;5071670;28;20049;-73
2022/03/22 09:53:52;;;;;;;20.95;11.32;;;;;;;18.75;12.09;102899.38;5092252;28;20136;-72
2022/03/22 09:56:20;;;;;;;20.60;10.05;;;;;;;19.54;11.37;102909.06;5091291;28;20078;-73
2022/03/22 09:58:47;;;;;;;25.33;10.52;;;;;;;18.76;11.81;102901.09;5092158;28;20071;-72
2022/03/22 10:01:14;;;;;;;19.90;10.93;;;;;;;18.86;11.95;102899.13;5092234;28;20064;-72
2022/03/22 10:03:40;;;;;;;23.52;11.10;;;;;;;19.80;11.26;102895.38;5092527;28;20127;-73
2022/03/22 10:06:08;;;;;;;16.80;11.13;;;;;;;18.50;12.06;102891.09;5089848;28;20052;-72
2022/03/22 10:08:48;;;;;;;25.52;11.13;;;;;;;18.58;12.12;102884.84;5071751;28;20068;-73
2022/03/22 10:11:15;;;;;;;17.98;10.73;;;;;;;17.67;12.32;102889.69;5087010;28;20070;-73
2022/03/22 10:13:55;;;;;;;19.45;10.20;;;;;;;17.85;12.23;102898.69;5091204;28;20048;-71
2022/03/22 10:16:22;;;;;;;18.88;10.27;;;;;;;16.52;13.22;102888.25;5091589;28;20139;-71
2022/03/22 10:18:50;;;;;;;16.52;10.38;;;;;;;17.44;12.47;102892.88;5091476;28;20048;-72
2022/03/22 10:21:16;;;;;;;16.02;10.50;;;;;;;19.18;11.48;102879.38;5091887;28;20068;-72
2022/03/22 10:23:52;;;;;;;15.82;9.65;;;;;;;18.05;12.12;102886.66;5092869;28;20472;-71
2022/03/22 10:26:19;;;;;;;17.67;10.45;;;;;;;18.87;11.82;102878.22;5091735;28;20044;-71
2022/03/22 10:28:53;;;;;;;22.63;10.77;;;;;;;19.68;11.37;102883.09;5092123;28;20419;-72
2022/03/22 10:31:32;;;;;;;17.88;9.75;;;;;;;18.69;11.31;102886.44;5091398;28;20101;-74
2022/03/22 10:34:01;;;;;;;;;;;;;;;19.02;11.46;102876.59;5088393;28;20047;-72
2022/03/22 10:36:28;;;;;;;16.17;10.15;;;;;;;19.40;11.23;102874.34;5092331;28;19982;-72
2022/03/22 10:39:02;;;;;;;19.60;10.13;;;;;;;20.14;10.91;102870.69;5092047;28;20047;-73
2022/03/22 10:41:30;;;;;;;26.35;10.80;;;;;;;20.33;11.20;102860.44;5084009;28;20100;-73
2022/03/22 10:44:05;;;;;;;20.75;9.77;;;;;;;20.39;10.75;102862.47;5075286;28;20068;-74
2022/03/22 10:46:32;;;;;;;23.67;9.43;;;;;;;19.70;10.96;102857.41;5074022;28;20048;-74
2022/03/22 10:49:10;;;;;;;16.40;8.82;;;;;;;19.84;10.62;102858.59;5074634;28;20098;-74
2022/03/22 10:51:43;;;;;;;17.38;9.65;;;;;;;18.88;11.56;102848.13;5073346;28;20460;-73
2022/03/22 10:54:12;;;;;;;16.75;9.80;;;;;;;19.98;11.35;102853.50;5072091;28;20515;-74
2022/03/22 10:56:45;;;;;;;17.80;9.23;;;;;;;19.16;11.26;102846.03;5073702;28;20045;-74
2022/03/22 10:59:13;;;;;;;18.73;9.40;;;;;;;18.51;11.98;102846.59;5073491;28;20460;-74
2022/03/22 11:01:45;;;;;;;17.10;9.57;;;;;;;19.63;11.26;102847.31;5074122;28;20048;-73
2022/03/22 11:04:19;;;;;;;22.92;10.13;;;;;;;19.87;11.22;102850.09;5074675;28;20135;-74
2022/03/22 11:06:47;;;;;;;19.50;9.18;;;;;;;19.68;11.12;102837.66;5063353;28;20044;-74
2022/03/22 11:09:14;;;;;;;27.05;9.85;;;;;;;18.44;11.68;102833.78;5073297;28;20048;-74
2022/03/22 11:11:43;;;;;;;23.08;10.10;;;;;;;19.12;11.62;102835.66;5074919;28;20123;-74
2022/03/22 11:14:16;;;;;;;22.33;10.07;;;;;;;18.87;11.56;102835.53;5073612;28;20055;-73
2022/03/22 11:16:47;;;;;;;15.48;9.13;;;;;;;19.10;11.18;102840.41;5074691;28;20068;-72
2022/03/22 11:19:20;;;;;;;15.45;9.43;;;;;;;18.36;11.48;102834.59;5074544;28;20131;-74
2022/03/22 11:21:47;;;;;;;17.52;9.68;;;;;;;18.16;11.67;102828.53;5062578;28;20496;-73
2022/03/22 11:24:23;;;;;;;14.23;9.77;;;;;;;19.77;11.04;102837.66;5073340;28;20071;-73
2022/03/22 11:26:53;;;;;;;19.55;9.85;;;;;;;19.34;11.07;102829.56;5073694;28;20077;-73
2022/03/22 11:29:24;;;;;;;15.88;9.73;;;;;;;20.31;10.87;102829.75;5073350;28;20498;-74
2022/03/22 11:34:38;;;;;;;14.35;8.95;;;;;;;19.04;10.78;102827.47;5073482;28;20060;-72
2022/03/22 11:37:07;;;;;;;16.73;8.60;;;;;;;19.48;10.04;102819.91;5073304;28;20496;-73
2022/03/22 11:42:24;;;;;;;14.70;8.38;;;;;;;20.92;9.47;102814.56;5074114;28;20049;-73
2022/03/22 11:45:00;;;;;;;12.43;8.00;;;;;;;20.36;9.79;102828.22;5073956;28;20068;-73
2022/03/22 11:47:41;;;;;;;17.13;8.75;;;;;;;21.29;9.34;102818.50;5073808;28;20071;-74
2022/03/22 11:50:10;;;;;;;14.43;8.90;;;;;;;21.29;9.29;102821.22;5073225;28;20071;-74
2022/03/22 11:52:41;;;;;;;13.60;8.48;;;;;;;21.76;8.72;102809.22;5055392;28;20124;-72
2022/03/22 11:55:22;;;;;;;16.95;8.50;;;;;;;22.56;7.99;102800.41;5073366;28;20606;-74
2022/03/22 11:57:50;;;;;;;10.93;7.78;;;;;;;22.51;8.11;102801.00;5073294;28;20472;-73
2022/03/22 12:00:42;;;;;;;16.38;7.78;;;;;;;21.14;8.84;102793.81;5073220;28;20048;-72